sensor_id;sensor_type;location;lat;lon;timestamp;temperature;humidity
25937;DHT22;13733;51.178;4.450;2022-07-11T00:02:13;19.80;99.90
25937;DHT22;13733;51.178;4.450;2022-07-11T00:04:39;19.80;99.90
25937;DHT22;13733;51.178;4.450;2022-07-11T00:07:05;19.70;99.90
25937;DHT22;13733;51.178;4.450;2022-07-11T00:09:31;19.70;99.90
25937;DHT22;13733;51.178;4.450;2022-07-11T00:11:57;19.70;99.90
25937;DHT22;13733;51.178;4.450;2022-07-11T00:14:23;19.60;99.90
25937;DHT22;13733;51.178;4.450;2022-07-11T00:16:49;19.60;99.90
25937;DHT22;13733;51.178;4.450;2022-07-11T00:19:15;19.60;99.90
25937;DHT22;13733;51.178;4.450;2022-07-11T00:21:41;19.50;99.90
25937;DHT22;13733;51.178;4.450;2022-07-11T00:24:07;19.50;99.90
25937;DHT22;13733;51.178;4.450;2022-07-11T00:26:35;19.40;99.90
25937;DHT22;13733;51.178;4.450;2022-07-11T00:29:01;19.40;99.90
25937;DHT22;13733;51.178;4.450;2022-07-11T00:31:27;19.30;99.90
25937;DHT22;13733;51.178;4.450;2022-07-11T00:33:53;19.30;99.90
25937;DHT22;13733;51.178;4.450;2022-07-11T00:36:19;19.30;99.90
25937;DHT22;13733;51.178;4.450;2022-07-11T00:38:45;19.20;99.90
25937;DHT22;13733;51.178;4.450;2022-07-11T00:41:11;19.20;99.90
25937;DHT22;13733;51.178;4.450;2022-07-11T00:43:38;19.10;99.90
25937;DHT22;13733;51.178;4.450;2022-07-11T00:46:04;19.10;99.90
25937;DHT22;13733;51.178;4.450;2022-07-11T00:48:30;19.10;99.90
25937;DHT22;13733;51.178;4.450;2022-07-11T00:50:59;19.10;99.90
25937;DHT22;13733;51.178;4.450;2022-07-11T00:53:26;19.00;99.90
25937;DHT22;13733;51.178;4.450;2022-07-11T00:55:52;19.00;99.90
25937;DHT22;13733;51.178;4.450;2022-07-11T00:58:19;18.90;99.90
25937;DHT22;13733;51.178;4.450;2022-07-11T01:00:45;18.90;99.90
25937;DHT22;13733;51.178;4.450;2022-07-11T01:03:11;18.90;99.90
25937;DHT22;13733;51.178;4.450;2022-07-11T01:05:37;18.90;99.90
25937;DHT22;13733;51.178;4.450;2022-07-11T01:08:02;18.80;99.90
25937;DHT22;13733;51.178;4.450;2022-07-11T01:10:28;18.80;99.90
25937;DHT22;13733;51.178;4.450;2022-07-11T01:12:54;18.80;99.90
25937;DHT22;13733;51.178;4.450;2022-07-11T01:15:20;18.80;99.90
25937;DHT22;13733;51.178;4.450;2022-07-11T01:17:47;18.70;99.90
25937;DHT22;13733;51.178;4.450;2022-07-11T01:20:12;18.70;99.90
25937;DHT22;13733;51.178;4.450;2022-07-11T01:22:47;18.70;99.90
25937;DHT22;13733;51.178;4.450;2022-07-11T01:25:14;18.60;99.90
25937;DHT22;13733;51.178;4.450;2022-07-11T01:27:58;18.60;99.90
25937;DHT22;13733;51.178;4.450;2022-07-11T01:30:25;18.60;99.90
25937;DHT22;13733;51.178;4.450;2022-07-11T01:32:51;18.50;99.90
25937;DHT22;13733;51.178;4.450;2022-07-11T01:35:17;18.50;99.90
25937;DHT22;13733;51.178;4.450;2022-07-11T01:37:43;18.40;99.90
25937;DHT22;13733;51.178;4.450;2022-07-11T01:40:09;18.40;99.90
25937;DHT22;13733;51.178;4.450;2022-07-11T01:42:35;18.30;99.90
25937;DHT22;13733;51.178;4.450;2022-07-11T01:45:01;18.30;99.90
25937;DHT22;13733;51.178;4.450;2022-07-11T01:47:26;18.30;99.90
25937;DHT22;13733;51.178;4.450;2022-07-11T01:49:52;18.20;99.90
25937;DHT22;13733;51.178;4.450;2022-07-11T01:52:17;18.20;99.90
25937;DHT22;13733;51.178;4.450;2022-07-11T01:54:43;18.20;99.90
25937;DHT22;13733;51.178;4.450;2022-07-11T01:57:09;18.10;99.90
25937;DHT22;13733;51.178;4.450;2022-07-11T01:59:35;18.00;99.90
25937;DHT22;13733;51.178;4.450;2022-07-11T02:02:01;18.00;99.90
25937;DHT22;13733;51.178;4.450;2022-07-11T02:04:27;18.10;99.90
25937;DHT22;13733;51.178;4.450;2022-07-11T02:06:53;18.10;99.90
25937;DHT22;13733;51.178;4.450;2022-07-11T02:09:18;18.10;99.90
25937;DHT22;13733;51.178;4.450;2022-07-11T02:11:44;18.10;99.90
25937;DHT22;13733;51.178;4.450;2022-07-11T02:14:10;18.10;99.90
25937;DHT22;13733;51.178;4.450;2022-07-11T02:16:35;18.10;99.90
25937;DHT22;13733;51.178;4.450;2022-07-11T02:19:01;18.10;99.90
25937;DHT22;13733;51.178;4.450;2022-07-11T02:21:26;18.20;99.90
25937;DHT22;13733;51.178;4.450;2022-07-11T02:23:52;18.20;99.90
25937;DHT22;13733;51.178;4.450;2022-07-11T02:26:18;18.20;99.90
25937;DHT22;13733;51.178;4.450;2022-07-11T02:28:44;18.20;99.90
25937;DHT22;13733;51.178;4.450;2022-07-11T02:31:10;18.20;99.90
25937;DHT22;13733;51.178;4.450;2022-07-11T02:33:36;18.10;99.90
25937;DHT22;13733;51.178;4.450;2022-07-11T02:36:02;18.00;99.90
25937;DHT22;13733;51.178;4.450;2022-07-11T02:38:27;18.00;99.90
25937;DHT22;13733;51.178;4.450;2022-07-11T02:40:53;18.00;99.90
25937;DHT22;13733;51.178;4.450;2022-07-11T02:43:19;18.00;99.90
25937;DHT22;13733;51.178;4.450;2022-07-11T02:45:44;17.90;99.90
25937;DHT22;13733;51.178;4.450;2022-07-11T02:48:10;17.90;99.90
25937;DHT22;13733;51.178;4.450;2022-07-11T02:50:36;17.90;99.90
25937;DHT22;13733;51.178;4.450;2022-07-11T02:53:01;17.90;99.90
25937;DHT22;13733;51.178;4.450;2022-07-11T02:55:27;17.80;99.90
25937;DHT22;13733;51.178;4.450;2022-07-11T02:57:53;17.80;99.90
25937;DHT22;13733;51.178;4.450;2022-07-11T03:00:19;17.80;99.90
25937;DHT22;13733;51.178;4.450;2022-07-11T03:02:44;17.80;99.90
25937;DHT22;13733;51.178;4.450;2022-07-11T03:05:10;17.80;99.90
25937;DHT22;13733;51.178;4.450;2022-07-11T03:07:37;17.80;99.90
25937;DHT22;13733;51.178;4.450;2022-07-11T03:10:03;17.90;99.90
25937;DHT22;13733;51.178;4.450;2022-07-11T03:12:28;17.90;99.90
25937;DHT22;13733;51.178;4.450;2022-07-11T03:14:54;17.90;99.90
25937;DHT22;13733;51.178;4.450;2022-07-11T03:17:19;17.90;99.90
25937;DHT22;13733;51.178;4.450;2022-07-11T03:19:45;17.90;99.90
25937;DHT22;13733;51.178;4.450;2022-07-11T03:22:13;17.80;99.90
25937;DHT22;13733;51.178;4.450;2022-07-11T03:24:39;17.80;99.90
25937;DHT22;13733;51.178;4.450;2022-07-11T03:27:08;17.80;99.90
25937;DHT22;13733;51.178;4.450;2022-07-11T03:29:34;17.80;99.90
25937;DHT22;13733;51.178;4.450;2022-07-11T03:32:00;17.80;99.90
25937;DHT22;13733;51.178;4.450;2022-07-11T03:34:26;17.80;99.90
25937;DHT22;13733;51.178;4.450;2022-07-11T03:36:51;17.90;99.90
25937;DHT22;13733;51.178;4.450;2022-07-11T03:39:17;17.90;99.90
25937;DHT22;13733;51.178;4.450;2022-07-11T03:41:43;18.00;99.90
25937;DHT22;13733;51.178;4.450;2022-07-11T03:44:08;17.90;99.90
25937;DHT22;13733;51.178;4.450;2022-07-11T03:46:34;17.90;99.90
25937;DHT22;13733;51.178;4.450;2022-07-11T03:49:00;17.90;99.90
25937;DHT22;13733;51.178;4.450;2022-07-11T03:51:26;17.90;99.90
25937;DHT22;13733;51.178;4.450;2022-07-11T03:53:51;17.80;99.90
25937;DHT22;13733;51.178;4.450;2022-07-11T03:56:17;17.80;99.90
25937;DHT22;13733;51.178;4.450;2022-07-11T03:58:50;17.80;99.90
25937;DHT22;13733;51.178;4.450;2022-07-11T04:01:16;17.70;99.90
25937;DHT22;13733;51.178;4.450;2022-07-11T04:03:42;17.80;99.90
25937;DHT22;13733;51.178;4.450;2022-07-11T04:06:08;17.80;99.90
25937;DHT22;13733;51.178;4.450;2022-07-11T04:08:34;17.80;99.90
25937;DHT22;13733;51.178;4.450;2022-07-11T04:11:00;17.80;99.90
25937;DHT22;13733;51.178;4.450;2022-07-11T04:13:26;17.80;99.90
25937;DHT22;13733;51.178;4.450;2022-07-11T04:15:52;17.80;99.90
25937;DHT22;13733;51.178;4.450;2022-07-11T04:18:18;17.80;99.90
25937;DHT22;13733;51.178;4.450;2022-07-11T04:20:43;17.80;99.90
25937;DHT22;13733;51.178;4.450;2022-07-11T04:23:09;17.80;99.90
25937;DHT22;13733;51.178;4.450;2022-07-11T04:25:35;17.80;99.90
25937;DHT22;13733;51.178;4.450;2022-07-11T04:28:00;17.80;99.90
25937;DHT22;13733;51.178;4.450;2022-07-11T04:30:26;17.80;99.90
25937;DHT22;13733;51.178;4.450;2022-07-11T04:32:52;17.80;99.90
25937;DHT22;13733;51.178;4.450;2022-07-11T04:35:18;17.90;99.90
25937;DHT22;13733;51.178;4.450;2022-07-11T04:37:43;17.90;99.90
25937;DHT22;13733;51.178;4.450;2022-07-11T04:40:10;17.90;99.90
25937;DHT22;13733;51.178;4.450;2022-07-11T04:42:35;17.90;99.90
25937;DHT22;13733;51.178;4.450;2022-07-11T04:45:01;17.90;99.90
25937;DHT22;13733;51.178;4.450;2022-07-11T04:47:27;18.00;99.90
25937;DHT22;13733;51.178;4.450;2022-07-11T04:49:52;18.00;99.90
25937;DHT22;13733;51.178;4.450;2022-07-11T04:52:18;18.00;99.90
25937;DHT22;13733;51.178;4.450;2022-07-11T04:54:44;18.00;99.90
25937;DHT22;13733;51.178;4.450;2022-07-11T04:57:09;18.00;99.90
25937;DHT22;13733;51.178;4.450;2022-07-11T04:59:35;18.00;99.90
25937;DHT22;13733;51.178;4.450;2022-07-11T05:02:00;18.00;99.90
25937;DHT22;13733;51.178;4.450;2022-07-11T05:04:26;18.00;99.90
25937;DHT22;13733;51.178;4.450;2022-07-11T05:06:52;18.00;99.90
25937;DHT22;13733;51.178;4.450;2022-07-11T05:09:17;18.10;99.90
25937;DHT22;13733;51.178;4.450;2022-07-11T05:11:43;18.10;99.90
25937;DHT22;13733;51.178;4.450;2022-07-11T05:14:09;18.10;99.90
25937;DHT22;13733;51.178;4.450;2022-07-11T05:16:34;18.20;99.90
25937;DHT22;13733;51.178;4.450;2022-07-11T05:19:01;18.30;99.90
25937;DHT22;13733;51.178;4.450;2022-07-11T05:21:26;18.40;99.90
25937;DHT22;13733;51.178;4.450;2022-07-11T05:23:52;18.40;99.90
25937;DHT22;13733;51.178;4.450;2022-07-11T05:26:18;18.40;99.90
25937;DHT22;13733;51.178;4.450;2022-07-11T05:28:44;18.40;99.90
25937;DHT22;13733;51.178;4.450;2022-07-11T05:31:09;18.50;99.90
25937;DHT22;13733;51.178;4.450;2022-07-11T05:33:36;18.60;99.90
25937;DHT22;13733;51.178;4.450;2022-07-11T05:36:02;18.70;99.90
25937;DHT22;13733;51.178;4.450;2022-07-11T05:38:27;18.80;99.90
25937;DHT22;13733;51.178;4.450;2022-07-11T05:40:53;18.70;99.90
25937;DHT22;13733;51.178;4.450;2022-07-11T05:43:19;18.60;99.90
25937;DHT22;13733;51.178;4.450;2022-07-11T05:45:44;18.70;99.90
25937;DHT22;13733;51.178;4.450;2022-07-11T05:48:10;18.70;99.90
25937;DHT22;13733;51.178;4.450;2022-07-11T05:50:36;18.70;99.90
25937;DHT22;13733;51.178;4.450;2022-07-11T05:53:02;18.80;99.90
25937;DHT22;13733;51.178;4.450;2022-07-11T05:55:28;18.80;99.90
25937;DHT22;13733;51.178;4.450;2022-07-11T05:57:54;18.90;99.90
25937;DHT22;13733;51.178;4.450;2022-07-11T06:00:19;18.80;99.90
25937;DHT22;13733;51.178;4.450;2022-07-11T06:02:46;18.80;99.90
25937;DHT22;13733;51.178;4.450;2022-07-11T06:05:12;18.90;99.90
25937;DHT22;13733;51.178;4.450;2022-07-11T06:07:38;19.00;99.90
25937;DHT22;13733;51.178;4.450;2022-07-11T06:10:22;19.20;99.90
25937;DHT22;13733;51.178;4.450;2022-07-11T06:12:48;19.20;99.90
25937;DHT22;13733;51.178;4.450;2022-07-11T06:15:14;19.20;99.90
25937;DHT22;13733;51.178;4.450;2022-07-11T06:17:39;19.30;99.90
25937;DHT22;13733;51.178;4.450;2022-07-11T06:20:05;19.40;99.90
25937;DHT22;13733;51.178;4.450;2022-07-11T06:22:31;19.60;99.90
25937;DHT22;13733;51.178;4.450;2022-07-11T06:24:58;19.70;99.90
25937;DHT22;13733;51.178;4.450;2022-07-11T06:27:24;20.00;99.90
25937;DHT22;13733;51.178;4.450;2022-07-11T06:29:50;20.10;99.90
25937;DHT22;13733;51.178;4.450;2022-07-11T06:32:15;20.30;99.90
25937;DHT22;13733;51.178;4.450;2022-07-11T06:34:41;20.50;99.90
25937;DHT22;13733;51.178;4.450;2022-07-11T06:37:08;20.60;99.90
25937;DHT22;13733;51.178;4.450;2022-07-11T06:39:34;20.80;99.90
25937;DHT22;13733;51.178;4.450;2022-07-11T06:41:59;21.00;99.90
25937;DHT22;13733;51.178;4.450;2022-07-11T06:44:25;21.30;99.90
25937;DHT22;13733;51.178;4.450;2022-07-11T06:46:50;21.30;99.90
25937;DHT22;13733;51.178;4.450;2022-07-11T06:49:17;21.40;99.90
25937;DHT22;13733;51.178;4.450;2022-07-11T06:51:43;21.30;99.90
25937;DHT22;13733;51.178;4.450;2022-07-11T06:54:08;21.40;99.90
25937;DHT22;13733;51.178;4.450;2022-07-11T06:56:36;21.50;99.90
25937;DHT22;13733;51.178;4.450;2022-07-11T06:59:01;21.60;99.90
25937;DHT22;13733;51.178;4.450;2022-07-11T07:01:27;21.60;99.90
25937;DHT22;13733;51.178;4.450;2022-07-11T07:03:53;21.60;99.90
25937;DHT22;13733;51.178;4.450;2022-07-11T07:06:18;21.70;99.90
25937;DHT22;13733;51.178;4.450;2022-07-11T07:08:45;21.60;99.90
25937;DHT22;13733;51.178;4.450;2022-07-11T07:11:11;21.60;99.90
25937;DHT22;13733;51.178;4.450;2022-07-11T07:13:37;21.60;99.90
25937;DHT22;13733;51.178;4.450;2022-07-11T07:16:02;21.70;99.90
25937;DHT22;13733;51.178;4.450;2022-07-11T07:18:32;21.70;99.90
25937;DHT22;13733;51.178;4.450;2022-07-11T07:20:58;21.50;99.90
25937;DHT22;13733;51.178;4.450;2022-07-11T07:23:23;21.60;99.90
25937;DHT22;13733;51.178;4.450;2022-07-11T07:25:49;21.90;99.90
25937;DHT22;13733;51.178;4.450;2022-07-11T07:28:15;22.10;99.90
25937;DHT22;13733;51.178;4.450;2022-07-11T07:30:40;22.20;99.90
25937;DHT22;13733;51.178;4.450;2022-07-11T07:33:06;21.90;99.90
25937;DHT22;13733;51.178;4.450;2022-07-11T07:35:32;22.00;99.90
25937;DHT22;13733;51.178;4.450;2022-07-11T07:37:57;22.20;99.90
25937;DHT22;13733;51.178;4.450;2022-07-11T07:40:24;22.10;99.90
25937;DHT22;13733;51.178;4.450;2022-07-11T07:42:50;22.30;99.90
25937;DHT22;13733;51.178;4.450;2022-07-11T07:45:15;22.50;99.90
25937;DHT22;13733;51.178;4.450;2022-07-11T07:47:41;22.60;99.90
25937;DHT22;13733;51.178;4.450;2022-07-11T07:50:07;22.70;99.90
25937;DHT22;13733;51.178;4.450;2022-07-11T07:52:32;22.60;99.90
25937;DHT22;13733;51.178;4.450;2022-07-11T07:54:58;22.40;99.90
25937;DHT22;13733;51.178;4.450;2022-07-11T07:57:23;22.50;99.90
25937;DHT22;13733;51.178;4.450;2022-07-11T07:59:49;22.60;99.90
25937;DHT22;13733;51.178;4.450;2022-07-11T08:02:15;22.80;99.90
25937;DHT22;13733;51.178;4.450;2022-07-11T08:04:41;22.50;99.90
25937;DHT22;13733;51.178;4.450;2022-07-11T08:07:07;22.40;99.90
25937;DHT22;13733;51.178;4.450;2022-07-11T08:09:32;22.50;99.90
25937;DHT22;13733;51.178;4.450;2022-07-11T08:11:58;22.50;99.90
25937;DHT22;13733;51.178;4.450;2022-07-11T08:14:24;22.70;99.90
25937;DHT22;13733;51.178;4.450;2022-07-11T08:16:49;22.70;99.90
25937;DHT22;13733;51.178;4.450;2022-07-11T08:19:15;22.80;99.90
25937;DHT22;13733;51.178;4.450;2022-07-11T08:21:42;22.90;99.90
25937;DHT22;13733;51.178;4.450;2022-07-11T08:24:08;23.10;99.90
25937;DHT22;13733;51.178;4.450;2022-07-11T08:26:33;23.10;99.90
25937;DHT22;13733;51.178;4.450;2022-07-11T08:29:03;23.10;99.90
25937;DHT22;13733;51.178;4.450;2022-07-11T08:31:29;23.20;99.90
25937;DHT22;13733;51.178;4.450;2022-07-11T08:33:55;23.40;99.90
25937;DHT22;13733;51.178;4.450;2022-07-11T08:36:23;23.30;99.90
25937;DHT22;13733;51.178;4.450;2022-07-11T08:38:48;23.60;99.90
25937;DHT22;13733;51.178;4.450;2022-07-11T08:41:14;23.70;99.90
25937;DHT22;13733;51.178;4.450;2022-07-11T08:43:40;24.20;99.90
25937;DHT22;13733;51.178;4.450;2022-07-11T08:46:07;24.40;99.90
25937;DHT22;13733;51.178;4.450;2022-07-11T08:48:33;24.30;99.90
25937;DHT22;13733;51.178;4.450;2022-07-11T08:50:59;24.50;99.90
25937;DHT22;13733;51.178;4.450;2022-07-11T08:53:26;23.80;99.90
25937;DHT22;13733;51.178;4.450;2022-07-11T08:55:53;23.90;99.90
25937;DHT22;13733;51.178;4.450;2022-07-11T08:58:19;24.10;99.90
25937;DHT22;13733;51.178;4.450;2022-07-11T09:00:45;24.40;99.90
25937;DHT22;13733;51.178;4.450;2022-07-11T09:03:14;24.70;99.90
25937;DHT22;13733;51.178;4.450;2022-07-11T09:05:41;24.90;99.90
25937;DHT22;13733;51.178;4.450;2022-07-11T09:08:07;25.10;99.90
25937;DHT22;13733;51.178;4.450;2022-07-11T09:10:33;25.40;99.90
25937;DHT22;13733;51.178;4.450;2022-07-11T09:15:31;25.40;99.90
25937;DHT22;13733;51.178;4.450;2022-07-11T09:17:57;25.20;99.90
25937;DHT22;13733;51.178;4.450;2022-07-11T09:20:23;24.90;99.90
25937;DHT22;13733;51.178;4.450;2022-07-11T09:22:48;25.00;99.90
25937;DHT22;13733;51.178;4.450;2022-07-11T09:25:41;25.00;99.90
25937;DHT22;13733;51.178;4.450;2022-07-11T09:28:06;25.20;99.90
25937;DHT22;13733;51.178;4.450;2022-07-11T09:30:37;24.90;99.90
25937;DHT22;13733;51.178;4.450;2022-07-11T09:33:09;24.90;99.90
25937;DHT22;13733;51.178;4.450;2022-07-11T09:35:41;24.10;99.90
25937;DHT22;13733;51.178;4.450;2022-07-11T09:38:09;23.70;99.90
25937;DHT22;13733;51.178;4.450;2022-07-11T09:40:35;23.60;99.90
25937;DHT22;13733;51.178;4.450;2022-07-11T09:43:01;23.90;99.90
25937;DHT22;13733;51.178;4.450;2022-07-11T09:45:28;24.40;99.90
25937;DHT22;13733;51.178;4.450;2022-07-11T09:47:57;24.60;99.90
25937;DHT22;13733;51.178;4.450;2022-07-11T09:50:28;24.80;99.90
25937;DHT22;13733;51.178;4.450;2022-07-11T09:53:13;24.50;99.90
25937;DHT22;13733;51.178;4.450;2022-07-11T09:55:40;24.30;99.90
25937;DHT22;13733;51.178;4.450;2022-07-11T09:58:07;24.50;99.90
25937;DHT22;13733;51.178;4.450;2022-07-11T10:00:34;24.50;99.90
25937;DHT22;13733;51.178;4.450;2022-07-11T10:03:00;24.50;99.90
25937;DHT22;13733;51.178;4.450;2022-07-11T10:05:28;24.90;99.90
25937;DHT22;13733;51.178;4.450;2022-07-11T10:07:54;25.20;99.90
25937;DHT22;13733;51.178;4.450;2022-07-11T10:10:20;25.60;99.90
25937;DHT22;13733;51.178;4.450;2022-07-11T10:12:47;25.60;99.90
25937;DHT22;13733;51.178;4.450;2022-07-11T10:15:16;25.80;99.90
25937;DHT22;13733;51.178;4.450;2022-07-11T10:20:35;25.90;99.90
25937;DHT22;13733;51.178;4.450;2022-07-11T10:30:49;26.20;99.90
25937;DHT22;13733;51.178;4.450;2022-07-11T10:33:15;26.70;99.90
25937;DHT22;13733;51.178;4.450;2022-07-11T10:35:42;27.20;99.90
25937;DHT22;13733;51.178;4.450;2022-07-11T10:38:08;27.30;99.90
25937;DHT22;13733;51.178;4.450;2022-07-11T10:40:44;27.50;99.90
25937;DHT22;13733;51.178;4.450;2022-07-11T10:43:15;27.60;99.90
25937;DHT22;13733;51.178;4.450;2022-07-11T10:45:54;27.70;99.90
25937;DHT22;13733;51.178;4.450;2022-07-11T10:48:20;27.80;99.90
25937;DHT22;13733;51.178;4.450;2022-07-11T10:50:47;27.30;99.90
25937;DHT22;13733;51.178;4.450;2022-07-11T10:53:20;27.20;99.90
25937;DHT22;13733;51.178;4.450;2022-07-11T10:55:47;27.10;99.90
25937;DHT22;13733;51.178;4.450;2022-07-11T10:58:19;27.50;99.90
25937;DHT22;13733;51.178;4.450;2022-07-11T11:00:48;27.70;99.90
25937;DHT22;13733;51.178;4.450;2022-07-11T11:03:15;28.20;99.90
25937;DHT22;13733;51.178;4.450;2022-07-11T11:14:16;28.50;99.90
25937;DHT22;13733;51.178;4.450;2022-07-11T11:16:33;28.70;99.90
25937;DHT22;13733;51.178;4.450;2022-07-11T11:18:58;29.80;99.50
25937;DHT22;13733;51.178;4.450;2022-07-11T11:21:24;30.60;96.70
25937;DHT22;13733;51.178;4.450;2022-07-11T11:26:24;29.90;97.00
25937;DHT22;13733;51.178;4.450;2022-07-11T11:28:57;30.60;96.20
25937;DHT22;13733;51.178;4.450;2022-07-11T11:31:23;31.40;95.00
25937;DHT22;13733;51.178;4.450;2022-07-11T11:33:49;30.10;95.10
25937;DHT22;13733;51.178;4.450;2022-07-11T11:36:15;30.10;95.50
25937;DHT22;13733;51.178;4.450;2022-07-11T11:38:41;29.60;96.10
25937;DHT22;13733;51.178;4.450;2022-07-11T11:41:07;30.00;96.40
25937;DHT22;13733;51.178;4.450;2022-07-11T11:43:37;29.60;96.80
25937;DHT22;13733;51.178;4.450;2022-07-11T11:46:03;30.40;95.80
25937;DHT22;13733;51.178;4.450;2022-07-11T11:48:29;31.30;93.80
25937;DHT22;13733;51.178;4.450;2022-07-11T11:51:05;31.60;93.00
25937;DHT22;13733;51.178;4.450;2022-07-11T11:53:38;32.40;91.30
25937;DHT22;13733;51.178;4.450;2022-07-11T11:56:20;33.90;85.60
25937;DHT22;13733;51.178;4.450;2022-07-11T11:58:49;33.70;81.20
25937;DHT22;13733;51.178;4.450;2022-07-11T12:01:27;34.30;80.40
25937;DHT22;13733;51.178;4.450;2022-07-11T12:06:27;35.10;71.20
25937;DHT22;13733;51.178;4.450;2022-07-11T12:08:59;34.30;73.60
25937;DHT22;13733;51.178;4.450;2022-07-11T12:11:25;35.20;71.70
25937;DHT22;13733;51.178;4.450;2022-07-11T12:13:57;35.90;66.00
25937;DHT22;13733;51.178;4.450;2022-07-11T12:16:24;35.60;65.50
25937;DHT22;13733;51.178;4.450;2022-07-11T12:19:05;36.40;63.20
25937;DHT22;13733;51.178;4.450;2022-07-11T12:21:33;36.60;61.50
25937;DHT22;13733;51.178;4.450;2022-07-11T12:24:06;36.40;59.30
25937;DHT22;13733;51.178;4.450;2022-07-11T12:26:32;36.40;57.70
25937;DHT22;13733;51.178;4.450;2022-07-11T12:31:56;36.00;58.80
25937;DHT22;13733;51.178;4.450;2022-07-11T12:34:24;35.00;61.20
25937;DHT22;13733;51.178;4.450;2022-07-11T12:39:28;33.80;66.40
25937;DHT22;13733;51.178;4.450;2022-07-11T12:41:55;34.50;64.30
25937;DHT22;13733;51.178;4.450;2022-07-11T12:44:28;33.90;62.40
25937;DHT22;13733;51.178;4.450;2022-07-11T12:47:13;32.90;66.00
25937;DHT22;13733;51.178;4.450;2022-07-11T12:49:40;32.70;65.70
25937;DHT22;13733;51.178;4.450;2022-07-11T12:52:10;33.70;64.90
25937;DHT22;13733;51.178;4.450;2022-07-11T12:54:36;33.90;62.80
25937;DHT22;13733;51.178;4.450;2022-07-11T12:57:02;33.60;63.70
25937;DHT22;13733;51.178;4.450;2022-07-11T12:59:28;32.90;65.30
25937;DHT22;13733;51.178;4.450;2022-07-11T13:01:55;32.40;67.50
25937;DHT22;13733;51.178;4.450;2022-07-11T13:04:28;31.90;69.00
25937;DHT22;13733;51.178;4.450;2022-07-11T13:06:54;31.70;71.30
25937;DHT22;13733;51.178;4.450;2022-07-11T13:09:38;33.20;68.90
25937;DHT22;13733;51.178;4.450;2022-07-11T13:12:04;35.10;64.00
25937;DHT22;13733;51.178;4.450;2022-07-11T13:14:29;36.00;59.90
25937;DHT22;13733;51.178;4.450;2022-07-11T13:17:14;36.50;56.90
25937;DHT22;13733;51.178;4.450;2022-07-11T13:19:39;37.70;53.70
25937;DHT22;13733;51.178;4.450;2022-07-11T13:22:05;38.40;52.70
25937;DHT22;13733;51.178;4.450;2022-07-11T13:24:31;39.20;50.60
25937;DHT22;13733;51.178;4.450;2022-07-11T13:26:56;39.70;49.30
25937;DHT22;13733;51.178;4.450;2022-07-11T13:29:22;39.10;49.00
25937;DHT22;13733;51.178;4.450;2022-07-11T13:31:48;38.40;49.60
25937;DHT22;13733;51.178;4.450;2022-07-11T13:34:14;37.60;50.10
25937;DHT22;13733;51.178;4.450;2022-07-11T13:36:40;36.90;50.50
25937;DHT22;13733;51.178;4.450;2022-07-11T13:39:06;37.00;50.80
25937;DHT22;13733;51.178;4.450;2022-07-11T13:41:32;37.90;49.40
25937;DHT22;13733;51.178;4.450;2022-07-11T13:43:57;38.40;47.70
25937;DHT22;13733;51.178;4.450;2022-07-11T13:46:23;39.30;47.00
25937;DHT22;13733;51.178;4.450;2022-07-11T13:48:49;40.40;44.90
25937;DHT22;13733;51.178;4.450;2022-07-11T13:51:14;40.60;42.80
25937;DHT22;13733;51.178;4.450;2022-07-11T13:53:40;41.10;41.10
25937;DHT22;13733;51.178;4.450;2022-07-11T13:56:05;41.90;39.80
25937;DHT22;13733;51.178;4.450;2022-07-11T13:58:31;41.70;38.20
25937;DHT22;13733;51.178;4.450;2022-07-11T14:00:58;42.00;38.00
25937;DHT22;13733;51.178;4.450;2022-07-11T14:03:24;42.10;36.70
25937;DHT22;13733;51.178;4.450;2022-07-11T14:05:49;41.50;36.80
25937;DHT22;13733;51.178;4.450;2022-07-11T14:08:15;41.90;36.70
25937;DHT22;13733;51.178;4.450;2022-07-11T14:10:41;41.70;35.90
25937;DHT22;13733;51.178;4.450;2022-07-11T14:13:07;41.80;36.80
25937;DHT22;13733;51.178;4.450;2022-07-11T14:15:32;42.30;34.90
25937;DHT22;13733;51.178;4.450;2022-07-11T14:17:58;41.50;35.90
25937;DHT22;13733;51.178;4.450;2022-07-11T14:20:24;39.30;38.20
25937;DHT22;13733;51.178;4.450;2022-07-11T14:22:51;38.30;39.50
25937;DHT22;13733;51.178;4.450;2022-07-11T14:25:17;38.00;40.10
25937;DHT22;13733;51.178;4.450;2022-07-11T14:27:43;38.50;40.30
25937;DHT22;13733;51.178;4.450;2022-07-11T14:30:08;39.50;38.40
25937;DHT22;13733;51.178;4.450;2022-07-11T14:32:34;40.10;36.60
25937;DHT22;13733;51.178;4.450;2022-07-11T14:35:00;39.10;37.30
25937;DHT22;13733;51.178;4.450;2022-07-11T14:37:26;39.60;37.40
25937;DHT22;13733;51.178;4.450;2022-07-11T14:39:52;40.40;35.40
25937;DHT22;13733;51.178;4.450;2022-07-11T14:42:17;41.10;34.20
25937;DHT22;13733;51.178;4.450;2022-07-11T14:44:43;41.70;33.60
25937;DHT22;13733;51.178;4.450;2022-07-11T14:47:09;42.40;33.20
25937;DHT22;13733;51.178;4.450;2022-07-11T14:49:34;42.70;32.10
25937;DHT22;13733;51.178;4.450;2022-07-11T14:52:00;42.90;30.60
25937;DHT22;13733;51.178;4.450;2022-07-11T14:54:26;42.80;30.00
25937;DHT22;13733;51.178;4.450;2022-07-11T14:56:52;43.00;30.00
25937;DHT22;13733;51.178;4.450;2022-07-11T14:59:18;42.50;30.20
25937;DHT22;13733;51.178;4.450;2022-07-11T15:01:43;42.70;30.10
25937;DHT22;13733;51.178;4.450;2022-07-11T15:04:09;43.30;29.10
25937;DHT22;13733;51.178;4.450;2022-07-11T15:06:35;43.80;29.40
25937;DHT22;13733;51.178;4.450;2022-07-11T15:09:19;44.30;29.30
25937;DHT22;13733;51.178;4.450;2022-07-11T15:12:03;44.30;30.00
25937;DHT22;13733;51.178;4.450;2022-07-11T15:14:48;43.90;29.60
25937;DHT22;13733;51.178;4.450;2022-07-11T15:17:14;43.60;29.20
25937;DHT22;13733;51.178;4.450;2022-07-11T15:19:39;43.60;29.10
25937;DHT22;13733;51.178;4.450;2022-07-11T15:22:05;44.10;28.60
25937;DHT22;13733;51.178;4.450;2022-07-11T15:24:31;44.50;28.10
25937;DHT22;13733;51.178;4.450;2022-07-11T15:26:57;43.10;28.50
25937;DHT22;13733;51.178;4.450;2022-07-11T15:29:24;42.30;29.90
25937;DHT22;13733;51.178;4.450;2022-07-11T15:31:49;42.80;29.40
25937;DHT22;13733;51.178;4.450;2022-07-11T15:34:15;41.00;30.10
25937;DHT22;13733;51.178;4.450;2022-07-11T15:36:41;41.90;29.90
25937;DHT22;13733;51.178;4.450;2022-07-11T15:39:07;39.70;33.30
25937;DHT22;13733;51.178;4.450;2022-07-11T15:41:33;40.20;33.60
25937;DHT22;13733;51.178;4.450;2022-07-11T15:43:58;40.30;32.90
25937;DHT22;13733;51.178;4.450;2022-07-11T15:46:24;40.80;32.60
25937;DHT22;13733;51.178;4.450;2022-07-11T15:48:49;42.00;31.70
25937;DHT22;13733;51.178;4.450;2022-07-11T15:51:15;43.20;29.90
25937;DHT22;13733;51.178;4.450;2022-07-11T15:53:41;43.90;29.30
25937;DHT22;13733;51.178;4.450;2022-07-11T15:56:06;44.50;29.30
25937;DHT22;13733;51.178;4.450;2022-07-11T15:58:32;45.20;27.60
25937;DHT22;13733;51.178;4.450;2022-07-11T16:00:58;45.10;28.20